Time;durP1;ratioP1;P1;durP2;ratioP2;P2;SDS_P1;SDS_P2;PMS_P1;PMS_P2;Temp;Humidity;BMP_temperature;BMP_pressure;BME280_temperature;BME280_humidity;BME280_pressure;Samples;Min_cycle;Max_cycle;Signal;HPM_P1;HPM_P2
2021/04/07 00:03:35;;;;;;;57.40;29.20;;;;;;;1.92;57.02;97937.27;258007;1118;114728;-78
2021/04/07 00:08:38;;;;;;;58.38;29.50;;;;;;;1.89;56.84;97940.88;258099;1118;115069;-72
2021/04/07 00:13:41;;;;;;;58.20;29.40;;;;;;;1.88;56.84;97949.67;257918;1119;114608;-71
2021/04/07 00:18:44;;;;;;;55.90;28.65;;;;;;;1.85;56.88;97941.94;257977;1119;114705;-72
2021/04/07 00:23:47;;;;;;;56.90;27.65;;;;;;;1.84;57.41;97936.77;258279;1119;114758;-72
2021/04/07 00:28:50;;;;;;;51.85;26.05;;;;;;;1.84;57.14;97942.02;258111;1119;114546;-71
2021/04/07 00:33:53;;;;;;;48.60;26.43;;;;;;;1.82;57.39;97933.36;258017;1119;114493;-71
2021/04/07 00:38:55;;;;;;;52.90;26.20;;;;;;;1.81;57.09;97939.53;258244;1119;114583;-71
2021/04/07 00:44:04;;;;;;;45.30;25.80;;;;;;;1.82;57.53;97938.60;258159;1118;114474;-71
2021/04/07 00:49:07;;;;;;;47.28;25.38;;;;;;;1.83;57.26;97950.78;258229;1118;114617;-72
2021/04/07 00:54:10;;;;;;;42.80;25.00;;;;;;;1.81;57.25;97950.02;258161;1119;114727;-72
2021/04/07 00:59:15;;;;;;;41.00;22.68;;;;;;;1.80;57.31;97956.16;258179;1119;115167;-72
2021/04/07 01:04:18;;;;;;;41.65;23.13;;;;;;;1.78;57.62;97961.49;257839;1119;114673;-72
2021/04/07 01:09:21;;;;;;;44.20;23.45;;;;;;;1.75;57.53;97963.40;257911;1119;115029;-70
2021/04/07 01:14:24;;;;;;;42.18;21.58;;;;;;;1.68;57.23;97967.21;258348;1119;114593;-70
2021/04/07 01:19:27;;;;;;;37.50;20.25;;;;;;;1.62;57.40;97977.03;258196;1118;114571;-71
2021/04/07 01:24:31;;;;;;;40.50;21.73;;;;;;;1.60;57.60;97980.66;258292;1118;114854;-71
2021/04/07 01:29:34;;;;;;;34.58;20.85;;;;;;;1.62;58.09;97986.67;258348;1118;114534;-73
2021/04/07 01:34:45;;;;;;;37.75;21.70;;;;;;;1.63;57.73;97985.74;258282;1118;115364;-73
2021/04/07 01:39:49;;;;;;;34.15;19.40;;;;;;;1.63;57.71;97980.50;257889;1119;114581;-72
2021/04/07 01:44:53;;;;;;;34.55;18.33;;;;;;;1.59;58.06;97989.42;258274;1118;114888;-73
2021/04/07 01:49:59;;;;;;;40.75;21.18;;;;;;;1.56;58.15;97982.56;258235;1118;114936;-72
2021/04/07 01:55:02;;;;;;;42.88;20.85;;;;;;;1.56;57.96;97992.17;258270;1118;114534;-73
2021/04/07 02:00:13;;;;;;;39.95;21.08;;;;;;;1.55;58.03;97999.19;258314;1118;114809;-73
2021/04/07 02:05:17;;;;;;;37.10;20.48;;;;;;;1.53;57.95;97995.80;258353;1118;114717;-72
2021/04/07 02:10:21;;;;;;;34.75;19.33;;;;;;;1.48;57.96;97997.75;257903;1119;114877;-71
2021/04/07 02:15:24;;;;;;;42.45;20.23;;;;;;;1.45;57.76;97997.03;258269;1118;114942;-72
2021/04/07 02:20:27;;;;;;;41.38;21.53;;;;;;;1.44;58.49;98006.66;257827;1118;114573;-72
2021/04/07 02:25:31;;;;;;;44.08;21.50;;;;;;;1.41;58.62;98002.39;258349;1119;114481;-72
2021/04/07 02:30:33;;;;;;;38.78;20.63;;;;;;;1.42;58.49;98004.09;258324;1119;114506;-72
2021/04/07 02:35:37;;;;;;;36.00;19.60;;;;;;;1.38;58.37;97999.05;257417;1119;114662;-71
2021/04/07 02:40:39;;;;;;;43.23;21.55;;;;;;;1.35;58.08;98005.27;257934;1119;115121;-72
2021/04/07 02:45:43;;;;;;;40.65;21.10;;;;;;;1.35;58.40;98004.42;258301;1118;114623;-72
2021/04/07 02:50:45;;;;;;;37.23;19.10;;;;;;;1.36;59.00;98014.01;258299;1118;114667;-72
2021/04/07 02:55:48;;;;;;;42.23;20.48;;;;;;;1.37;58.39;98015.70;258341;1119;114483;-71
2021/04/07 03:00:51;;;;;;;40.43;21.35;;;;;;;1.37;58.51;98018.33;258323;1117;115149;-72
2021/04/07 03:05:54;;;;;;;43.63;21.95;;;;;;;1.36;58.82;98014.01;258268;1119;114529;-72
2021/04/07 03:10:56;;;;;;;40.25;21.93;;;;;;;1.37;58.39;98019.17;258343;1118;114513;-72
2021/04/07 03:15:59;;;;;;;35.73;20.60;;;;;;;1.37;58.49;98023.56;257772;1119;114532;-72
2021/04/07 03:21:03;;;;;;;40.30;20.98;;;;;;;1.38;58.92;98023.48;257857;1119;115035;-72
2021/04/07 03:26:06;;;;;;;40.83;20.50;;;;;;;1.40;58.37;98028.69;258304;1118;114513;-72
2021/04/07 03:31:08;;;;;;;43.85;22.38;;;;;;;1.37;58.76;98026.19;258290;1118;114695;-72
2021/04/07 03:36:12;;;;;;;39.80;21.80;;;;;;;1.36;58.79;98032.36;257731;1119;114843;-72
2021/04/07 03:41:14;;;;;;;40.98;21.93;;;;;;;1.38;58.50;98035.75;257968;1120;114565;-72
2021/04/07 03:46:18;;;;;;;44.05;20.83;;;;;;;1.37;58.66;98041.91;258257;1119;114896;-72
2021/04/07 03:51:21;;;;;;;39.05;20.38;;;;;;;1.36;58.59;98037.59;257734;1119;114573;-72
2021/04/07 03:56:24;;;;;;;36.73;20.55;;;;;;;1.32;58.78;98051.72;258289;1118;114595;-72
2021/04/07 04:01:26;;;;;;;42.43;21.35;;;;;;;1.29;58.59;98057.08;257981;1120;114430;-72
2021/04/07 04:06:29;;;;;;;45.53;20.73;;;;;;;1.28;58.84;98063.25;258269;1119;114724;-72
2021/04/07 04:11:32;;;;;;;37.93;21.90;;;;;;;1.27;58.63;98066.79;258270;1118;114605;-72
2021/04/07 04:16:35;;;;;;;44.23;21.63;;;;;;;1.28;59.02;98071.11;258093;1119;114731;-72
2021/04/07 04:21:38;;;;;;;44.88;23.02;;;;;;;1.31;58.90;98076.23;257847;1119;114727;-72
2021/04/07 04:26:41;;;;;;;47.10;24.20;;;;;;;1.36;59.38;98071.67;258013;1119;114646;-71
2021/04/07 04:31:44;;;;;;;41.38;22.58;;;;;;;1.41;59.61;98088.05;257756;1119;114580;-71
2021/04/07 04:36:47;;;;;;;45.15;20.52;;;;;;;1.37;59.02;98084.70;258158;1119;114665;-72
2021/04/07 04:41:50;;;;;;;39.13;23.00;;;;;;;1.37;58.81;98094.34;258150;1119;115105;-72
2021/04/07 04:46:54;;;;;;;38.55;21.83;;;;;;;1.39;58.97;98101.23;257896;1119;114662;-71
2021/04/07 04:51:56;;;;;;;42.23;21.28;;;;;;;1.42;58.93;98103.70;257824;1119;114683;-71
2021/04/07 04:56:59;;;;;;;36.85;19.63;;;;;;;1.44;58.99;98103.66;258415;1118;115086;-70
2021/04/07 05:02:01;;;;;;;35.15;18.55;;;;;;;1.48;59.39;98110.48;258174;1119;114857;-71
2021/04/07 05:07:05;;;;;;;46.33;22.45;;;;;;;1.55;58.96;98111.08;258265;1118;114885;-70
2021/04/07 05:12:08;;;;;;;41.63;21.30;;;;;;;1.59;59.17;98112.66;258064;1118;114611;-72
2021/04/07 05:17:11;;;;;;;37.58;19.63;;;;;;;1.62;58.77;98115.16;257993;1117;115906;-72
2021/04/07 05:22:15;;;;;;;31.85;17.90;;;;;;;1.62;58.95;98118.63;257843;1118;115023;-73
2021/04/07 05:27:17;;;;;;;30.47;18.30;;;;;;;1.69;58.84;98126.25;258224;1119;115422;-72
2021/04/07 05:32:20;;;;;;;37.37;19.17;;;;;;;1.72;58.85;98128.75;258169;1119;114802;-73
2021/04/07 05:37:23;;;;;;;39.35;20.23;;;;;;;1.77;59.22;98126.81;258296;1118;115232;-73
2021/04/07 05:42:26;;;;;;;39.68;18.50;;;;;;;1.83;58.91;98123.91;258337;1118;114337;-73
2021/04/07 05:47:31;;;;;;;35.95;20.03;;;;;;;1.89;59.17;98134.15;258377;1118;114656;-73
2021/04/07 05:52:34;;;;;;;35.10;18.40;;;;;;;1.94;58.91;98144.44;258210;1119;114678;-71
2021/04/07 05:57:39;;;;;;;32.60;18.85;;;;;;;2.00;58.98;98146.81;258060;1118;114655;-72
2021/04/07 06:02:41;;;;;;;32.88;18.75;;;;;;;2.14;59.25;98141.86;258025;1120;114720;-73
2021/04/07 06:07:44;;;;;;;31.63;18.45;;;;;;;2.20;58.87;98146.83;258216;1118;114611;-76
2021/04/07 06:12:47;;;;;;;33.90;19.60;;;;;;;2.29;59.05;98150.84;257944;1119;114492;-75
2021/04/07 06:18:00;;;;;;;30.00;17.18;;;;;;;2.35;58.65;98150.59;258349;1118;114662;-74
2021/04/07 06:23:05;;;;;;;32.05;18.10;;;;;;;2.43;58.60;98161.59;258246;1119;114622;-75
2021/04/07 06:28:09;;;;;;;27.83;17.68;;;;;;;2.51;58.74;98158.63;258137;1118;115237;-75
2021/04/07 06:33:16;;;;;;;28.90;18.50;;;;;;;2.59;58.45;98153.91;257816;1118;114623;-75
2021/04/07 06:38:20;;;;;;;25.55;16.58;;;;;;;2.71;58.50;98158.60;257747;1118;115581;-74
2021/04/07 06:43:24;;;;;;;29.60;17.30;;;;;;;2.84;58.67;98166.80;257753;1118;115971;-73
2021/04/07 06:48:28;;;;;;;29.10;16.68;;;;;;;2.95;58.50;98172.41;257791;1118;115987;-74
2021/04/07 06:53:32;;;;;;;26.63;15.55;;;;;;;3.04;58.43;98187.77;257726;1117;114706;-74
2021/04/07 06:58:35;;;;;;;24.70;15.60;;;;;;;3.10;58.01;98188.44;257471;1118;114989;-74
2021/04/07 07:03:38;;;;;;;26.60;15.13;;;;;;;3.07;57.53;98192.89;257505;1119;114928;-74
2021/04/07 07:08:41;;;;;;;27.08;14.15;;;;;;;3.09;57.30;98195.44;257622;1118;114808;-74
2021/04/07 07:13:45;;;;;;;28.38;14.88;;;;;;;3.11;57.47;98190.13;257638;1118;115212;-74
2021/04/07 07:18:49;;;;;;;22.27;12.90;;;;;;;3.17;57.34;98201.22;257776;1117;114864;-74
2021/04/07 07:23:52;;;;;;;22.35;14.13;;;;;;;3.24;57.35;98197.38;257783;1117;114855;-74
2021/04/07 07:28:59;;;;;;;23.63;13.45;;;;;;;3.44;57.20;98208.77;257655;1118;115007;-74
2021/04/07 07:34:04;;;;;;;26.58;15.25;;;;;;;3.56;56.92;98206.39;257518;1118;115096;-75
2021/04/07 07:39:08;;;;;;;23.18;13.60;;;;;;;3.63;56.86;98209.59;257796;1118;115445;-73
2021/04/07 07:44:11;;;;;;;23.70;14.58;;;;;;;3.73;56.95;98220.53;257769;1118;114874;-78
2021/04/07 07:49:19;;;;;;;20.80;13.00;;;;;;;3.80;56.49;98216.67;257654;1118;114638;-78
2021/04/07 07:54:24;;;;;;;17.78;12.13;;;;;;;3.85;56.08;98209.43;257870;1118;114854;-80
2021/04/07 07:59:31;;;;;;;23.25;13.63;;;;;;;3.88;55.65;98214.55;257969;1118;114867;-78
2021/04/07 08:04:44;;;;;;;22.73;13.30;;;;;;;3.94;56.07;98224.79;257660;1117;114685;-80
2021/04/07 08:10:07;;;;;;;17.28;11.85;;;;;;;3.99;55.82;98224.55;257891;1117;115918;-78
2021/04/07 08:15:12;;;;;;;17.80;12.08;;;;;;;3.96;55.58;98236.08;257619;1118;114683;-79
2021/04/07 08:20:15;;;;;;;17.40;11.45;;;;;;;3.96;55.31;98230.81;257369;1118;115231;-78
2021/04/07 08:25:18;;;;;;;17.93;11.95;;;;;;;4.04;55.46;98227.80;257902;1118;114933;-80
2021/04/07 08:30:25;;;;;;;18.75;11.90;;;;;;;4.20;55.25;98220.02;257683;1118;114741;-79
2021/04/07 08:35:28;;;;;;;17.73;11.05;;;;;;;4.25;55.04;98220.66;257711;1118;116392;-79
2021/04/07 08:40:45;;;;;;;15.85;11.45;;;;;;;4.20;55.46;98226.13;257639;1118;114839;-79
2021/04/07 08:45:49;;;;;;;20.40;10.43;;;;;;;4.23;54.89;98220.71;257833;1118;115421;-73
2021/04/07 08:51:05;;;;;;;17.60;10.70;;;;;;;4.17;54.65;98231.55;257526;1118;114782;-73
2021/04/07 08:56:10;;;;;;;19.63;11.88;;;;;;;4.27;55.13;98234.58;257641;1118;114827;-74
2021/04/07 09:01:21;;;;;;;15.70;10.15;;;;;;;4.36;54.79;98223.59;257919;1118;114820;-74
2021/04/07 09:06:27;;;;;;;17.15;9.93;;;;;;;4.47;54.62;98221.27;257527;1118;114932;-74
2021/04/07 09:11:32;;;;;;;17.73;11.08;;;;;;;4.60;54.51;98233.83;257754;1118;116079;-74
2021/04/07 09:16:39;;;;;;;15.35;8.70;;;;;;;4.45;53.98;98240.70;257456;1118;115054;-73
2021/04/07 09:22:00;;;;;;;17.78;10.30;;;;;;;4.32;53.70;98243.13;257699;1118;114900;-74
2021/04/07 09:27:03;;;;;;;14.80;9.48;;;;;;;4.26;53.35;98246.05;257785;1117;114985;-73
2021/04/07 09:32:16;;;;;;;18.40;10.23;;;;;;;4.24;53.23;98243.48;257752;1117;114618;-74
2021/04/07 09:37:20;;;;;;;14.65;9.15;;;;;;;4.28;53.28;98246.84;257484;1117;114964;-73
2021/04/07 09:42:23;;;;;;;17.65;9.25;;;;;;;4.51;53.73;98237.77;258040;1118;114606;-73
2021/04/07 09:47:29;;;;;;;16.23;9.30;;;;;;;4.82;54.07;98244.96;257609;1118;114909;-73
2021/04/07 09:52:41;;;;;;;19.35;9.10;;;;;;;4.80;53.58;98262.66;257767;1118;114867;-73
2021/04/07 09:57:43;;;;;;;9.33;6.20;;;;;;;4.45;53.93;98273.20;257485;1119;114811;-74
2021/04/07 10:02:46;;;;;;;11.70;5.93;;;;;;;4.20;54.02;98277.95;258018;1119;114648;-72
2021/04/07 10:08:12;;;;;;;14.00;8.15;;;;;;;4.06;55.07;98261.97;258098;1119;114822;-74
2021/04/07 10:13:16;;;;;;;17.10;8.95;;;;;;;4.34;55.69;98251.78;258309;1119;114997;-74
2021/04/07 10:18:19;;;;;;;12.48;8.10;;;;;;;4.63;55.60;98246.85;258331;1118;114550;-74
2021/04/07 10:23:22;;;;;;;14.60;8.38;;;;;;;5.03;55.51;98242.14;257595;1117;114622;-72
2021/04/07 10:28:26;;;;;;;10.55;6.88;;;;;;;5.33;54.97;98234.39;257763;1117;114865;-73
2021/04/07 10:33:30;;;;;;;12.78;7.43;;;;;;;5.63;54.14;98240.64;257765;1118;114805;-74
2021/04/07 10:38:36;;;;;;;11.88;6.90;;;;;;;5.97;54.74;98230.88;257710;1118;114993;-74
2021/04/07 10:43:42;;;;;;;12.80;6.68;;;;;;;6.06;52.73;98238.30;257711;1117;115281;-74
2021/04/07 10:48:56;;;;;;;11.60;5.38;;;;;;;5.78;52.17;98249.52;257790;1118;115072;-73
2021/04/07 10:54:00;;;;;;;9.88;5.03;;;;;;;5.40;52.12;98255.11;257550;1118;115032;-73
2021/04/07 10:59:11;;;;;;;8.63;5.45;;;;;;;5.15;53.00;98252.05;257053;1118;114582;-74
2021/04/07 11:04:17;;;;;;;7.30;4.73;;;;;;;5.48;53.25;98251.20;257972;1117;114435;-73
2021/04/07 11:09:25;;;;;;;11.60;6.45;;;;;;;5.82;53.05;98242.28;257840;1118;114526;-73
2021/04/07 11:14:28;;;;;;;14.97;7.37;;;;;;;5.83;52.80;98270.38;257946;1118;115980;-73
2021/04/07 11:19:38;;;;;;;6.40;3.90;;;;;;;5.60;51.93;98290.11;257749;1118;115184;-72
2021/04/07 11:24:41;;;;;;;6.25;3.95;;;;;;;5.25;52.43;98292.84;257541;1118;114695;-72
2021/04/07 11:29:44;;;;;;;4.40;3.23;;;;;;;5.10;52.70;98280.47;257717;1117;114661;-72
2021/04/07 11:45:39;;;;;;;6.75;4.45;;;;;;;4.94;54.77;98299.70;257743;1118;114606;-72
2021/04/07 11:50:55;;;;;;;9.45;6.10;;;;;;;4.77;54.72;98333.97;257656;1118;114414;-72
2021/04/07 11:55:58;;;;;;;8.48;6.18;;;;;;;4.45;55.52;98333.79;257548;1118;114527;-72
2021/04/07 12:01:01;;;;;;;8.40;5.75;;;;;;;4.19;55.83;98324.50;258076;1118;115319;-72
2021/04/07 12:06:04;;;;;;;10.30;5.53;;;;;;;4.16;56.33;98316.73;257519;1118;114431;-72
2021/04/07 12:11:07;;;;;;;11.65;6.48;;;;;;;4.43;57.09;98311.92;255352;1119;115263;-73
2021/04/07 12:16:10;;;;;;;9.63;6.03;;;;;;;5.00;57.40;98308.25;257723;1117;115082;-74
2021/04/07 12:21:14;;;;;;;8.53;5.55;;;;;;;5.30;57.38;98298.74;257284;1118;114737;-77
2021/04/07 12:26:17;;;;;;;7.50;4.98;;;;;;;5.42;56.52;98298.08;257717;1118;114753;-79
2021/04/07 12:31:20;;;;;;;5.50;3.28;;;;;;;5.43;55.90;98294.52;257597;1118;115134;-78
2021/04/07 12:36:29;;;;;;;6.65;4.40;;;;;;;5.66;55.35;98295.91;257479;1118;114903;-79
2021/04/07 12:41:53;;;;;;;6.10;4.15;;;;;;;5.99;55.37;98286.27;257726;1118;115008;-79
2021/04/07 12:46:56;;;;;;;7.23;3.85;;;;;;;6.00;53.50;98288.81;257583;1117;114793;-79
2021/04/07 12:52:00;;;;;;;5.53;3.78;;;;;;;5.88;53.55;98300.04;256454;1117;114699;-83
2021/04/07 12:57:03;;;;;;;5.90;3.58;;;;;;;5.85;53.04;98297.56;257327;1117;114904;-79
2021/04/07 13:02:06;;;;;;;5.70;3.75;;;;;;;5.87;53.66;98322.08;257628;1118;114564;-78
2021/04/07 13:07:09;;;;;;;9.83;5.15;;;;;;;5.69;53.30;98330.06;257421;1118;114737;-78
2021/04/07 13:12:12;;;;;;;7.70;5.13;;;;;;;5.52;52.79;98343.30;257798;1118;115316;-78
2021/04/07 13:17:16;;;;;;;8.08;4.88;;;;;;;5.21;53.33;98359.88;257752;1118;114581;-77
2021/04/07 13:22:19;;;;;;;7.18;4.58;;;;;;;4.83;53.82;98373.21;257305;1117;114702;-78
2021/04/07 13:27:22;;;;;;;5.18;2.93;;;;;;;4.41;54.48;98366.45;257919;1118;114478;-78
2021/04/07 13:32:26;;;;;;;7.48;3.28;;;;;;;4.09;54.94;98365.35;257846;1118;115432;-78
2021/04/07 13:38:10;;;;;;;5.90;3.70;;;;;;;3.98;55.86;98370.27;257439;1118;114698;-78
2021/04/07 13:42:58;;;;;;;5.15;3.50;;;;;;;4.05;56.31;98358.53;257729;1118;114488;-78
2021/04/07 13:48:12;;;;;;;6.93;4.25;;;;;;;4.68;56.91;98353.72;257690;1117;114590;-79
2021/04/07 13:53:17;;;;;;;7.78;4.75;;;;;;;5.42;56.47;98355.28;257740;1118;114727;-77
2021/04/07 13:58:20;;;;;;;9.65;5.25;;;;;;;6.05;55.88;98349.33;257701;1118;114664;-78
2021/04/07 14:03:22;;;;;;;11.23;5.25;;;;;;;6.68;55.21;98357.21;257644;1118;114616;-78
2021/04/07 14:08:29;;;;;;;9.38;5.80;;;;;;;7.04;55.01;98361.33;257673;1116;114815;-78
2021/04/07 14:13:32;;;;;;;12.30;6.45;;;;;;;7.06;53.71;98351.48;257774;1118;114627;-72
2021/04/07 14:18:35;;;;;;;8.35;5.28;;;;;;;6.97;53.26;98349.41;258225;1118;114649;-73
2021/04/07 14:23:38;;;;;;;10.98;5.83;;;;;;;6.81;53.59;98358.21;258199;1119;114733;-72
2021/04/07 14:28:42;;;;;;;6.83;3.60;;;;;;;6.69;52.34;98360.70;258342;1119;115029;-73
2021/04/07 14:33:45;;;;;;;9.08;4.30;;;;;;;6.58;52.17;98370.09;258238;1118;114573;-73
2021/04/07 14:38:49;;;;;;;5.00;3.50;;;;;;;6.46;52.09;98364.67;255285;1119;114788;-74
2021/04/07 14:43:53;;;;;;;7.63;3.08;;;;;;;6.29;51.67;98363.81;257899;1119;114503;-73
2021/04/07 14:48:57;;;;;;;6.65;3.25;;;;;;;6.13;50.69;98362.95;258170;1119;114787;-73
2021/04/07 14:54:12;;;;;;;9.05;3.95;;;;;;;5.92;51.01;98376.39;258208;1118;114449;-73
2021/04/07 14:59:15;;;;;;;10.05;4.95;;;;;;;5.78;50.79;98372.77;258073;1119;114436;-73
2021/04/07 15:04:18;;;;;;;8.30;3.93;;;;;;;5.64;51.46;98368.22;258208;1119;115046;-73
2021/04/07 15:09:21;;;;;;;9.28;5.88;;;;;;;5.60;50.92;98374.56;258199;1119;114544;-73
2021/04/07 15:14:27;;;;;;;9.15;4.95;;;;;;;5.64;51.25;98382.26;258440;1117;114762;-73
2021/04/07 15:19:30;;;;;;;8.95;4.93;;;;;;;5.69;51.17;98385.49;257477;1117;114644;-72
2021/04/07 15:24:33;;;;;;;10.03;5.65;;;;;;;5.72;51.16;98400.33;257575;1118;114750;-71
2021/04/07 15:29:36;;;;;;;10.63;5.33;;;;;;;5.77;51.13;98414.13;257724;1118;114493;-72
2021/04/07 15:34:40;;;;;;;13.95;5.70;;;;;;;5.77;50.98;98418.55;257824;1118;114754;-72
2021/04/07 15:39:44;;;;;;;13.25;5.78;;;;;;;5.76;51.91;98417.70;257507;1119;115096;-77
2021/04/07 15:44:47;;;;;;;10.63;5.43;;;;;;;5.59;51.36;98426.50;257861;1118;114787;-78
2021/04/07 15:49:49;;;;;;;8.43;3.85;;;;;;;5.44;51.05;98407.05;257559;1118;115228;-77
2021/04/07 15:54:53;;;;;;;7.95;4.48;;;;;;;5.38;51.89;98417.91;257494;1118;114584;-77
2021/04/07 16:00:00;;;;;;;6.38;3.55;;;;;;;5.45;51.51;98429.00;257685;1118;115041;-73
2021/04/07 16:05:03;;;;;;;7.53;3.83;;;;;;;5.55;51.85;98429.39;257846;1118;114850;-73
2021/04/07 16:10:07;;;;;;;12.53;4.90;;;;;;;5.58;52.21;98439.79;258111;1118;114802;-73
2021/04/07 16:15:12;;;;;;;13.70;4.60;;;;;;;5.51;51.68;98433.13;258235;1118;114477;-73
2021/04/07 16:20:16;;;;;;;9.28;4.33;;;;;;;5.39;51.95;98432.80;258268;1119;114533;-74
2021/04/07 16:25:19;;;;;;;8.28;4.93;;;;;;;5.29;51.91;98436.83;258329;1119;114594;-73
2021/04/07 16:30:25;;;;;;;10.68;4.90;;;;;;;5.20;52.11;98432.89;258341;1118;114275;-72
2021/04/07 16:35:28;;;;;;;13.30;5.23;;;;;;;5.14;52.59;98432.34;258319;1118;114565;-73
2021/04/07 16:40:33;;;;;;;12.65;6.05;;;;;;;5.12;53.05;98439.46;258110;1117;115283;-73
2021/04/07 16:45:36;;;;;;;12.43;6.18;;;;;;;5.08;52.77;98443.19;257601;1118;114841;-73
2021/04/07 16:50:40;;;;;;;15.15;7.68;;;;;;;5.54;53.43;98439.09;257877;1117;114580;-73
2021/04/07 16:55:44;;;;;;;15.15;8.28;;;;;;;5.48;53.71;98441.20;257766;1117;115502;-74
2021/04/07 17:00:47;;;;;;;15.78;8.38;;;;;;;5.41;53.07;98441.50;257696;1118;114760;-74
2021/04/07 17:05:51;;;;;;;16.43;7.93;;;;;;;5.36;53.11;98455.84;257946;1117;115068;-74
2021/04/07 17:10:54;;;;;;;22.95;9.05;;;;;;;5.27;53.12;98457.17;257410;1118;115044;-74
2021/04/07 17:15:57;;;;;;;16.50;8.25;;;;;;;5.24;53.76;98467.03;257841;1118;114717;-74
2021/04/07 17:21:02;;;;;;;16.63;8.15;;;;;;;5.24;53.75;98473.16;257638;1118;114943;-72
2021/04/07 17:26:05;;;;;;;15.33;7.50;;;;;;;5.28;53.79;98479.98;257571;1118;115079;-73
2021/04/07 17:31:08;;;;;;;16.93;9.03;;;;;;;5.26;53.54;98492.38;257618;1118;115394;-73
2021/04/07 17:36:11;;;;;;;16.05;8.10;;;;;;;5.24;53.08;98486.34;257762;1117;115348;-73
2021/04/07 17:41:16;;;;;;;16.40;8.43;;;;;;;5.18;52.75;98503.31;257633;1117;115279;-73
2021/04/07 17:46:19;;;;;;;17.03;8.78;;;;;;;5.19;53.11;98496.25;257538;1118;114627;-74
2021/04/07 17:51:22;;;;;;;17.13;8.55;;;;;;;5.15;53.10;98502.61;257525;1118;114894;-74
2021/04/07 17:56:25;;;;;;;14.13;7.33;;;;;;;5.08;52.55;98506.48;257521;1118;114727;-72
2021/04/07 18:01:28;;;;;;;14.90;6.28;;;;;;;5.03;52.95;98511.10;257731;1118;114995;-72
2021/04/07 18:06:31;;;;;;;10.85;5.83;;;;;;;4.93;52.61;98523.90;257742;1117;114834;-71
2021/04/07 18:11:34;;;;;;;10.13;5.13;;;;;;;4.91;52.79;98549.47;257642;1118;114653;-74
2021/04/07 18:16:37;;;;;;;12.80;4.30;;;;;;;4.83;52.93;98556.89;257591;1118;114955;-71
2021/04/07 18:21:40;;;;;;;8.13;4.40;;;;;;;4.69;52.66;98561.02;257765;1118;114896;-71
2021/04/07 18:26:44;;;;;;;10.55;4.90;;;;;;;4.63;52.67;98563.92;257669;1119;115348;-71
2021/04/07 18:31:47;;;;;;;14.55;7.80;;;;;;;4.51;53.13;98569.74;257547;1119;114888;-70
2021/04/07 18:36:50;;;;;;;18.83;9.48;;;;;;;4.45;53.59;98573.53;257719;1118;114872;-70
2021/04/07 18:41:53;;;;;;;19.90;9.05;;;;;;;4.40;53.74;98587.81;258469;1118;114477;-70
2021/04/07 18:46:57;;;;;;;17.45;8.38;;;;;;;4.32;54.03;98598.70;257721;1118;114610;-70
2021/04/07 18:52:00;;;;;;;19.23;9.10;;;;;;;4.20;54.21;98610.61;257637;1118;114938;-70
2021/04/07 18:57:03;;;;;;;22.65;10.35;;;;;;;4.17;54.55;98629.17;257848;1118;114658;-70
2021/04/07 19:02:07;;;;;;;20.23;10.08;;;;;;;4.12;54.75;98630.30;257829;1118;115010;-70
2021/04/07 19:07:10;;;;;;;21.63;11.65;;;;;;;4.05;54.93;98631.48;258009;1118;114865;-71
2021/04/07 19:12:13;;;;;;;21.85;10.75;;;;;;;4.02;55.32;98638.58;257885;1118;115197;-73
2021/04/07 19:17:16;;;;;;;19.35;10.43;;;;;;;4.02;55.74;98646.48;257719;1118;115301;-70
2021/04/07 19:22:19;;;;;;;20.25;11.10;;;;;;;3.95;55.93;98642.39;257624;1118;114895;-73
2021/04/07 19:27:23;;;;;;;21.68;10.98;;;;;;;3.89;56.28;98657.59;258040;1118;116583;-70
2021/04/07 19:32:25;;;;;;;21.43;11.43;;;;;;;3.82;56.56;98662.24;257588;1117;114953;-70
2021/04/07 19:37:28;;;;;;;22.50;12.60;;;;;;;3.74;56.85;98665.19;257601;1118;115190;-70
2021/04/07 19:42:32;;;;;;;22.75;11.85;;;;;;;3.69;57.05;98661.02;257773;1118;114734;-71
2021/04/07 19:47:36;;;;;;;18.68;10.53;;;;;;;3.69;57.50;98663.66;257869;1118;114609;-71
2021/04/07 19:52:40;;;;;;;17.90;10.90;;;;;;;3.68;57.88;98675.95;256980;1118;115155;-71
2021/04/07 19:57:43;;;;;;;13.88;8.68;;;;;;;3.64;57.73;98663.00;257765;1118;114893;-69
2021/04/07 20:02:45;;;;;;;17.98;9.05;;;;;;;3.59;57.80;98671.05;257906;1118;114897;-69
2021/04/07 20:07:48;;;;;;;18.05;9.08;;;;;;;3.51;57.82;98675.77;257798;1117;115317;-69
2021/04/07 20:12:51;;;;;;;17.25;10.45;;;;;;;3.45;58.06;98676.86;257695;1118;115141;-70
2021/04/07 20:17:55;;;;;;;17.78;10.93;;;;;;;3.44;58.28;98688.30;258065;1118;114807;-69
2021/04/07 20:22:58;;;;;;;18.60;10.25;;;;;;;3.44;58.21;98676.94;257819;1117;115591;-69
2021/04/07 20:28:01;;;;;;;17.10;9.90;;;;;;;3.41;58.43;98687.57;257912;1118;115031;-70
2021/04/07 20:33:09;;;;;;;16.58;9.78;;;;;;;3.32;58.37;98670.36;257890;1117;114624;-70
2021/04/07 20:38:13;;;;;;;16.98;10.50;;;;;;;3.28;58.54;98684.55;257476;1119;115315;-70
2021/04/07 20:43:19;;;;;;;18.13;9.85;;;;;;;3.27;58.52;98693.36;257717;1118;115077;-69
2021/04/07 20:48:22;;;;;;;16.45;8.28;;;;;;;3.26;58.63;98691.63;257645;1117;114582;-70
2021/04/07 20:53:25;;;;;;;11.33;8.15;;;;;;;3.24;58.81;98706.63;257776;1117;114402;-69
2021/04/07 20:58:29;;;;;;;13.78;7.25;;;;;;;3.16;58.61;98709.55;257737;1118;115932;-70
2021/04/07 21:03:32;;;;;;;12.70;7.48;;;;;;;3.12;58.80;98700.03;257013;1118;115001;-72
2021/04/07 21:08:35;;;;;;;11.90;6.83;;;;;;;3.11;59.29;98705.36;256950;1118;114951;-72
2021/04/07 21:13:38;;;;;;;9.45;6.10;;;;;;;3.09;59.27;98708.03;257707;1118;115486;-77
2021/04/07 21:18:42;;;;;;;9.08;5.53;;;;;;;3.05;59.38;98711.70;256744;1118;114666;-82
2021/04/07 21:23:44;;;;;;;9.03;5.67;;;;;;;3.02;59.15;98715.31;255810;1118;114689;-77
2021/04/07 21:28:47;;;;;;;13.83;6.00;;;;;;;2.99;59.42;98723.31;257536;1118;114496;-78
2021/04/07 21:33:50;;;;;;;10.33;5.80;;;;;;;2.95;59.70;98724.31;257909;1118;115319;-71
2021/04/07 21:38:53;;;;;;;8.78;5.18;;;;;;;2.97;60.04;98727.75;257544;1117;114746;-69
2021/04/07 21:43:56;;;;;;;7.85;4.90;;;;;;;3.00;59.86;98717.13;257726;1118;115166;-70
2021/04/07 21:48:59;;;;;;;10.78;5.80;;;;;;;2.99;59.98;98723.31;257493;1117;114605;-70
2021/04/07 21:54:02;;;;;;;11.33;6.20;;;;;;;2.92;60.09;98726.20;258224;1118;114661;-73
2021/04/07 21:59:04;;;;;;;13.50;8.38;;;;;;;2.86;60.15;98722.04;257669;1118;114560;-72
2021/04/07 22:04:08;;;;;;;11.03;6.90;;;;;;;2.89;60.17;98726.30;253899;1118;115292;-79
2021/04/07 22:09:10;;;;;;;11.08;7.43;;;;;;;2.91;60.31;98727.97;257958;1118;115501;-78
2021/04/07 22:14:13;;;;;;;12.35;7.93;;;;;;;2.92;60.26;98729.70;256871;1117;115258;-78
2021/04/07 22:19:16;;;;;;;15.15;7.13;;;;;;;2.95;60.34;98721.69;257723;1118;114528;-78
2021/04/07 22:24:23;;;;;;;14.28;8.15;;;;;;;2.94;59.99;98730.48;256802;1118;114731;-78
2021/04/07 22:29:26;;;;;;;13.43;6.48;;;;;;;2.93;59.94;98726.16;257895;1118;114679;-78
2021/04/07 22:34:29;;;;;;;12.65;7.55;;;;;;;2.90;60.34;98728.89;257105;1118;114566;-80
2021/04/07 22:39:31;;;;;;;13.65;7.53;;;;;;;2.94;60.42;98725.23;256945;1118;114173;-78
2021/04/07 22:44:34;;;;;;;10.40;6.87;;;;;;;2.94;60.19;98730.48;257869;1118;114567;-78
2021/04/07 22:49:37;;;;;;;14.08;7.30;;;;;;;2.92;60.03;98727.08;257352;1117;114914;-78
2021/04/07 22:54:40;;;;;;;15.13;7.77;;;;;;;2.92;60.45;98724.45;252614;1118;114649;-77
2021/04/07 23:06:23;;;;;;;15.45;7.73;;;;;;;2.84;59.85;98731.73;255768;1118;114731;-71
2021/04/07 23:11:27;;;;;;;13.08;7.48;;;;;;;2.76;60.23;98721.50;257995;1118;115122;-71
2021/04/07 23:16:30;;;;;;;11.40;7.00;;;;;;;2.69;60.02;98729.66;257798;1118;114480;-71
2021/04/07 23:21:32;;;;;;;13.55;6.70;;;;;;;2.66;59.92;98724.52;257688;1117;114972;-72
2021/04/07 23:26:35;;;;;;;14.78;8.28;;;;;;;2.68;59.92;98725.30;257488;1117;115445;-71
2021/04/07 23:31:38;;;;;;;19.20;7.98;;;;;;;2.65;59.75;98723.66;257675;1118;114525;-71